createdAt,value
2022-12-11T00:00:10.419Z,-7.255
2022-12-11T00:01:10.457Z,-7.239
2022-12-11T00:02:10.519Z,-7.239
2022-12-11T00:03:15.593Z,-7.223
2022-12-11T00:04:10.576Z,-7.239
2022-12-11T00:05:10.856Z,-7.239
2022-12-11T00:06:10.622Z,-7.239
2022-12-11T00:07:10.657Z,-7.223
2022-12-11T00:08:10.763Z,-7.207
2022-12-11T00:09:10.730Z,-7.191
2022-12-11T00:10:10.760Z,-7.223
2022-12-11T00:11:10.797Z,-7.176
2022-12-11T00:12:10.828Z,-7.16
2022-12-11T00:13:10.858Z,-7.176
2022-12-11T00:14:10.888Z,-7.191
2022-12-11T00:15:11.156Z,-7.16
2022-12-11T00:16:11.015Z,-7.16
2022-12-11T00:17:11.011Z,-7.128
2022-12-11T00:18:11.013Z,-7.128
2022-12-11T00:19:11.048Z,-7.112
2022-12-11T00:20:11.078Z,-7.112
2022-12-11T00:21:11.145Z,-7.112
2022-12-11T00:22:11.143Z,-7.112
2022-12-11T00:23:11.171Z,-7.097
2022-12-11T00:24:11.201Z,-7.112
2022-12-11T00:25:11.503Z,-7.112
2022-12-11T00:26:11.275Z,-7.081
2022-12-11T00:27:11.315Z,-7.081
2022-12-11T00:28:11.346Z,-7.081
2022-12-11T00:29:11.370Z,-7.065
2022-12-11T00:30:11.405Z,-7.065
2022-12-11T00:31:11.435Z,-7.081
2022-12-11T00:32:11.543Z,-7.081
2022-12-11T00:33:11.501Z,-7.065
2022-12-11T00:34:11.550Z,-7.081
2022-12-11T00:35:11.872Z,-7.081
2022-12-11T00:36:11.603Z,-7.081
2022-12-11T00:37:11.700Z,-7.081
2022-12-11T00:38:11.658Z,-7.081
2022-12-11T00:39:11.710Z,-7.097
2022-12-11T00:40:11.718Z,-7.081
2022-12-11T00:41:11.757Z,-7.065
2022-12-11T00:42:11.795Z,-7.049
2022-12-11T00:43:11.829Z,-7.034
2022-12-11T00:44:11.862Z,-7.011
2022-12-11T00:45:12.162Z,-7.027
2022-12-11T00:46:11.963Z,-6.975
2022-12-11T00:47:11.954Z,-7.022
2022-12-11T00:48:11.993Z,-7.006
2022-12-11T00:49:12.026Z,-7.006
2022-12-11T00:50:12.067Z,-6.99
2022-12-11T00:51:12.094Z,-6.959
2022-12-11T00:52:12.138Z,-6.959
2022-12-11T00:53:12.167Z,-7.043
2022-12-11T00:54:12.208Z,-7.043
2022-12-11T00:55:12.617Z,-7.036
2022-12-11T00:56:12.251Z,-7.036
2022-12-11T00:57:12.297Z,-7.052
2022-12-11T00:58:12.325Z,-7.02
2022-12-11T00:59:12.352Z,-6.975
2022-12-11T01:00:12.393Z,-6.959
2022-12-11T01:01:12.528Z,-6.936
2022-12-11T01:02:12.458Z,-6.952
2022-12-11T01:03:12.542Z,-6.984
2022-12-11T01:04:12.514Z,-6.968
2022-12-11T01:05:12.935Z,-6.952
2022-12-11T01:06:12.596Z,-6.952
2022-12-11T01:07:12.611Z,-6.952
2022-12-11T01:08:12.723Z,-6.968
2022-12-11T01:09:12.682Z,-6.968
2022-12-11T01:10:12.785Z,-6.984
2022-12-11T01:11:12.753Z,-6.984
2022-12-11T01:12:12.804Z,-6.968
2022-12-11T01:13:12.809Z,-6.961
2022-12-11T01:14:12.836Z,-6.968
2022-12-11T01:15:13.229Z,-6.984
2022-12-11T01:16:13.010Z,-6.968
2022-12-11T01:17:12.942Z,-6.946
2022-12-11T01:18:12.962Z,-6.961
2022-12-11T01:19:12.991Z,-6.946
2022-12-11T01:20:13.018Z,-6.93
2022-12-11T01:21:13.060Z,-6.93
2022-12-11T01:22:13.095Z,-6.946
2022-12-11T01:23:13.187Z,-6.961
2022-12-11T01:24:13.150Z,-6.946
2022-12-11T01:25:13.271Z,-6.946
2022-12-11T01:26:13.223Z,-6.977
2022-12-11T01:27:13.249Z,-6.955
2022-12-11T01:28:13.269Z,-6.977
2022-12-11T01:29:13.308Z,-6.977
2022-12-11T01:30:13.343Z,-6.961
2022-12-11T01:31:13.421Z,-6.946
2022-12-11T01:32:13.411Z,-6.961
2022-12-11T01:33:13.440Z,-6.977
2022-12-11T01:34:13.463Z,-6.999
2022-12-11T01:35:13.618Z,-6.961
2022-12-11T01:36:13.515Z,-6.914
2022-12-11T01:37:13.545Z,-6.946
2022-12-11T01:38:13.577Z,-6.984
2022-12-11T01:39:13.615Z,-6.952
2022-12-11T01:40:13.645Z,-6.952
2022-12-11T01:41:13.679Z,-6.952
2022-12-11T01:42:13.711Z,-6.936
2022-12-11T01:43:13.740Z,-6.938
2022-12-11T01:44:13.781Z,-6.907
2022-12-11T01:45:13.808Z,-6.839
2022-12-11T01:46:13.899Z,-6.891
2022-12-11T01:47:13.874Z,-6.891
2022-12-11T01:48:13.908Z,-6.851
2022-12-11T01:49:13.950Z,-6.867
2022-12-11T01:50:13.959Z,-6.831
2022-12-11T01:51:13.998Z,-6.846
2022-12-11T01:52:14.035Z,-6.813
2022-12-11T01:53:14.070Z,-6.815
2022-12-11T01:54:14.092Z,-6.829
2022-12-11T01:55:14.120Z,-6.829
2022-12-11T01:56:14.146Z,-6.813
2022-12-11T01:57:14.184Z,-6.829
2022-12-11T01:58:14.209Z,-6.78
2022-12-11T01:59:14.246Z,-6.778
2022-12-11T02:00:14.268Z,-6.794
2022-12-11T02:01:14.318Z,-6.811
2022-12-11T02:02:14.344Z,-6.829
2022-12-11T02:03:14.353Z,-6.827
2022-12-11T02:04:14.396Z,-6.81
2022-12-11T02:05:14.419Z,-6.81
2022-12-11T02:06:14.452Z,-6.825
2022-12-11T02:07:14.481Z,-6.83
2022-12-11T02:08:14.519Z,-6.867
2022-12-11T02:09:14.559Z,-6.867
2022-12-11T02:10:14.577Z,-6.851
2022-12-11T02:11:14.615Z,-6.867
2022-12-11T02:12:14.644Z,-6.851
2022-12-11T02:13:14.686Z,-6.851
2022-12-11T02:14:14.715Z,-6.835
2022-12-11T02:15:14.755Z,-6.851
2022-12-11T02:16:14.830Z,-6.835
2022-12-11T02:17:14.805Z,-6.858
2022-12-11T02:18:14.836Z,-6.842
2022-12-11T02:19:14.867Z,-6.858
2022-12-11T02:20:14.916Z,-6.842
2022-12-11T02:21:14.932Z,-6.804
2022-12-11T02:22:14.966Z,-6.773
2022-12-11T02:23:14.993Z,-6.773
2022-12-11T02:24:15.034Z,-6.789
2022-12-11T02:25:15.072Z,-6.789
2022-12-11T02:26:15.080Z,-6.757
2022-12-11T02:27:15.120Z,-6.773
2022-12-11T02:28:15.160Z,-6.789
2022-12-11T02:29:15.177Z,-6.804
2022-12-11T02:30:15.230Z,-6.773
2022-12-11T02:31:15.267Z,-6.804
2022-12-11T02:32:15.276Z,-6.804
2022-12-11T02:33:15.304Z,-6.82
2022-12-11T02:34:15.353Z,-6.82
2022-12-11T02:35:15.373Z,-6.835
2022-12-11T02:36:15.403Z,-6.835
2022-12-11T02:37:15.440Z,-6.883
2022-12-11T02:38:15.466Z,-6.883
2022-12-11T02:39:15.504Z,-6.898
2022-12-11T02:40:15.543Z,-6.914
2022-12-11T02:41:15.572Z,-6.914
2022-12-11T02:42:15.612Z,-6.898
2022-12-11T02:43:15.641Z,-6.898
2022-12-11T02:44:15.678Z,-6.898
2022-12-11T02:45:15.703Z,-6.898
2022-12-11T02:46:15.796Z,-6.914
2022-12-11T02:47:15.766Z,-6.93
2022-12-11T02:48:15.792Z,-6.93
2022-12-11T02:49:15.822Z,-6.93
2022-12-11T02:50:15.850Z,-6.898
2022-12-11T02:51:15.903Z,-6.946
2022-12-11T02:52:15.927Z,-6.977
2022-12-11T02:53:15.958Z,-6.961
2022-12-11T02:54:15.976Z,-6.961
2022-12-11T02:55:16.013Z,-6.977
2022-12-11T02:56:16.082Z,-6.977
2022-12-11T02:57:16.085Z,-6.939
2022-12-11T02:58:16.111Z,-6.939
2022-12-11T02:59:16.141Z,-6.939
2022-12-11T03:00:16.182Z,-6.907
2022-12-11T03:01:16.243Z,-6.939
2022-12-11T03:02:16.305Z,-6.939
2022-12-11T03:03:16.286Z,-6.955
2022-12-11T03:04:16.329Z,-6.971
2022-12-11T03:05:16.362Z,-7.009
2022-12-11T03:06:16.397Z,-6.993
2022-12-11T03:07:16.421Z,-6.977
2022-12-11T03:08:16.478Z,-6.977
2022-12-11T03:09:16.488Z,-6.993
2022-12-11T03:10:16.513Z,-6.993
2022-12-11T03:11:16.543Z,-7.009
2022-12-11T03:12:16.560Z,-7.009
2022-12-11T03:13:16.593Z,-6.993
2022-12-11T03:14:16.629Z,-7
2022-12-11T03:15:16.657Z,-7
2022-12-11T03:16:16.726Z,-6.961
2022-12-11T03:17:16.718Z,-6.984
2022-12-11T03:18:16.755Z,-6.968
2022-12-11T03:19:16.792Z,-6.968
2022-12-11T03:20:16.811Z,-6.984
2022-12-11T03:21:16.843Z,-6.968
2022-12-11T03:22:16.880Z,-6.968
2022-12-11T03:23:16.908Z,-6.952
2022-12-11T03:24:16.941Z,-6.936
2022-12-11T03:25:16.975Z,-6.952
2022-12-11T03:26:17.015Z,-6.921
2022-12-11T03:27:17.061Z,-6.921
2022-12-11T03:28:17.067Z,-6.921
2022-12-11T03:29:17.098Z,-6.952
2022-12-11T03:30:17.121Z,-6.97
2022-12-11T03:31:17.197Z,-6.97
2022-12-11T03:32:17.164Z,-7.011
2022-12-11T03:33:17.190Z,-6.995
2022-12-11T03:34:17.226Z,-6.98
2022-12-11T03:35:17.249Z,-6.948
2022-12-11T03:36:17.275Z,-6.948
2022-12-11T03:37:17.324Z,-6.91
2022-12-11T03:38:17.340Z,-6.91
2022-12-11T03:39:17.378Z,-6.926
2022-12-11T03:40:17.405Z,-6.895
2022-12-11T03:41:17.440Z,-6.91
2022-12-11T03:42:17.460Z,-6.926
2022-12-11T03:43:17.499Z,-6.948
2022-12-11T03:44:17.527Z,-6.933
2022-12-11T03:45:17.557Z,-6.917
2022-12-11T03:46:17.668Z,-6.917
2022-12-11T03:47:17.638Z,-6.933
2022-12-11T03:48:17.668Z,-6.933
2022-12-11T03:49:17.700Z,-6.895
2022-12-11T03:50:17.720Z,-6.895
2022-12-11T03:51:17.758Z,-6.879
2022-12-11T03:52:17.803Z,-6.879
2022-12-11T03:53:17.827Z,-6.863
2022-12-11T03:54:17.861Z,-6.895
2022-12-11T03:55:17.881Z,-6.917
2022-12-11T03:56:17.918Z,-6.901
2022-12-11T03:57:17.942Z,-6.87
2022-12-11T03:58:17.975Z,-6.839
2022-12-11T03:59:18.014Z,-6.823
2022-12-11T04:00:18.045Z,-6.808
2022-12-11T04:01:18.082Z,-6.801
2022-12-11T04:02:18.104Z,-6.801
2022-12-11T04:03:18.135Z,-6.801
2022-12-11T04:04:18.208Z,-6.786
2022-12-11T04:05:18.204Z,-6.801
2022-12-11T04:06:18.263Z,-6.801
2022-12-11T04:07:18.273Z,-6.808
2022-12-11T04:08:18.409Z,-6.786
2022-12-11T04:09:18.325Z,-6.786
2022-12-11T04:10:18.357Z,-6.801
2022-12-11T04:11:18.397Z,-6.801
2022-12-11T04:12:18.427Z,-6.817
2022-12-11T04:13:18.451Z,-6.786
2022-12-11T04:14:18.489Z,-6.786
2022-12-11T04:15:18.518Z,-6.808
2022-12-11T04:16:18.589Z,-6.77
2022-12-11T04:17:18.589Z,-6.755
2022-12-11T04:18:18.617Z,-6.777
2022-12-11T04:19:18.650Z,-6.739
2022-12-11T04:20:18.720Z,-6.786
2022-12-11T04:21:18.717Z,-6.792
2022-12-11T04:22:18.750Z,-6.746
2022-12-11T04:23:18.789Z,-6.746
2022-12-11T04:24:18.817Z,-6.715
2022-12-11T04:25:18.848Z,-6.7
2022-12-11T04:26:18.883Z,-6.7
2022-12-11T04:27:18.913Z,-6.669
2022-12-11T04:28:18.946Z,-6.684
2022-12-11T04:29:18.974Z,-6.684
2022-12-11T04:30:19.020Z,-6.7
2022-12-11T04:31:19.092Z,-6.684
2022-12-11T04:32:19.070Z,-6.684
2022-12-11T04:33:19.095Z,-6.662
2022-12-11T04:34:19.133Z,-6.662
2022-12-11T04:35:19.165Z,-6.677
2022-12-11T04:36:19.197Z,-6.693
2022-12-11T04:37:19.218Z,-6.693
2022-12-11T04:38:19.251Z,-6.677
2022-12-11T04:39:19.288Z,-6.662
2022-12-11T04:40:19.315Z,-6.669
2022-12-11T04:41:19.351Z,-6.638
2022-12-11T04:42:19.369Z,-6.623
2022-12-11T04:43:19.411Z,-6.623
2022-12-11T04:44:19.447Z,-6.623
2022-12-11T04:45:19.480Z,-6.623
2022-12-11T04:46:19.614Z,-6.585
2022-12-11T04:47:19.535Z,-6.55
2022-12-11T04:48:19.583Z,-6.535
2022-12-11T04:49:19.621Z,-6.535
2022-12-11T04:50:19.651Z,-6.517
2022-12-11T04:51:19.681Z,-6.548
2022-12-11T04:52:19.710Z,-6.532
2022-12-11T04:53:19.747Z,-6.548
2022-12-11T04:54:19.784Z,-6.57
2022-12-11T04:55:19.806Z,-6.555
2022-12-11T04:56:19.832Z,-6.555
2022-12-11T04:57:19.871Z,-6.54
2022-12-11T04:58:19.909Z,-6.573
2022-12-11T04:59:19.938Z,-6.54
2022-12-11T05:00:19.968Z,-6.54
2022-12-11T05:01:20.068Z,-6.524
2022-12-11T05:02:20.053Z,-6.509
2022-12-11T05:03:20.041Z,-6.509
2022-12-11T05:04:20.078Z,-6.509
2022-12-11T05:05:20.117Z,-6.494
2022-12-11T05:06:20.147Z,-6.494
2022-12-11T05:07:20.197Z,-6.494
2022-12-11T05:08:20.242Z,-6.479
2022-12-11T05:09:20.248Z,-6.463
2022-12-11T05:10:20.281Z,-6.486
2022-12-11T05:11:20.313Z,-6.486
2022-12-11T05:12:20.334Z,-6.448
2022-12-11T05:13:20.368Z,-6.448
2022-12-11T05:14:20.392Z,-6.5
2022-12-11T05:15:20.438Z,-6.5
2022-12-11T05:16:20.505Z,-6.516
2022-12-11T05:17:20.516Z,-6.516
2022-12-11T05:18:20.526Z,-6.5
2022-12-11T05:19:20.557Z,-6.485
2022-12-11T05:20:20.581Z,-6.485
2022-12-11T05:21:20.621Z,-6.485
2022-12-11T05:22:20.653Z,-6.485
2022-12-11T05:23:20.679Z,-6.5
2022-12-11T05:24:20.703Z,-6.5
2022-12-11T05:25:20.741Z,-6.5
2022-12-11T05:26:20.768Z,-6.5
2022-12-11T05:27:20.798Z,-6.516
2022-12-11T05:28:20.826Z,-6.5
2022-12-11T05:29:20.865Z,-6.485
2022-12-11T05:30:20.890Z,-6.485
2022-12-11T05:31:20.950Z,-6.47
2022-12-11T05:32:20.949Z,-6.5
2022-12-11T05:33:21.011Z,-6.5
2022-12-11T05:34:21.016Z,-6.485
2022-12-11T05:35:21.045Z,-6.485
2022-12-11T05:36:21.084Z,-6.485
2022-12-11T05:37:21.116Z,-6.5
2022-12-11T05:38:21.168Z,-6.493
2022-12-11T05:39:21.193Z,-6.508
2022-12-11T05:40:21.231Z,-6.508
2022-12-11T05:41:21.256Z,-6.524
2022-12-11T05:42:25.517Z,-6.531
2022-12-11T05:43:21.304Z,-6.561
2022-12-11T05:44:21.340Z,-6.546
2022-12-11T05:45:21.373Z,-6.531
2022-12-11T05:46:21.463Z,-6.516
2022-12-11T05:47:21.438Z,-6.516
2022-12-11T05:48:21.473Z,-6.531
2022-12-11T05:49:24.701Z,-6.516
2022-12-11T05:50:21.550Z,-6.5
2022-12-11T05:51:21.585Z,-6.478
2022-12-11T05:52:21.617Z,-6.524
2022-12-11T05:53:21.638Z,-6.546
2022-12-11T05:54:21.668Z,-6.546
2022-12-11T05:55:21.705Z,-6.481
2022-12-11T05:56:21.742Z,-6.448
2022-12-11T05:57:21.764Z,-6.441
2022-12-11T05:58:21.801Z,-6.463
2022-12-11T05:59:21.829Z,-6.494
2022-12-11T06:00:21.867Z,-6.479
2022-12-11T06:01:21.886Z,-6.479
2022-12-11T06:02:22.040Z,-6.494
2022-12-11T06:03:21.969Z,-6.479
2022-12-11T06:04:21.980Z,-6.463
2022-12-11T06:05:22.010Z,-6.463
2022-12-11T06:06:22.044Z,-6.448
2022-12-11T06:07:22.073Z,-6.448
2022-12-11T06:08:22.155Z,-6.455
2022-12-11T06:09:22.126Z,-6.433
2022-12-11T06:10:22.163Z,-6.455
2022-12-11T06:11:24.192Z,-6.471
2022-12-11T06:12:22.217Z,-6.471
2022-12-11T06:13:22.296Z,-6.486
2022-12-11T06:14:22.278Z,-6.471
2022-12-11T06:15:22.313Z,-6.425
2022-12-11T06:16:22.458Z,-6.463
2022-12-11T06:17:22.394Z,-6.478
2022-12-11T06:18:22.418Z,-6.493
2022-12-11T06:19:22.439Z,-6.493
2022-12-11T06:20:22.462Z,-6.523
2022-12-11T06:21:22.480Z,-6.561
2022-12-11T06:22:22.513Z,-6.576
2022-12-11T06:23:22.545Z,-6.576
2022-12-11T06:24:22.574Z,-6.561
2022-12-11T06:25:22.607Z,-6.516
2022-12-11T06:26:22.641Z,-6.516
2022-12-11T06:27:22.666Z,-6.5
2022-12-11T06:28:22.699Z,-6.53
2022-12-11T06:29:22.721Z,-6.592
2022-12-11T06:30:22.751Z,-6.561
2022-12-11T06:31:22.841Z,-6.531
2022-12-11T06:32:22.825Z,-6.515
2022-12-11T06:33:22.856Z,-6.485
2022-12-11T06:34:22.901Z,-6.455
2022-12-11T06:35:22.920Z,-6.455
2022-12-11T06:36:22.952Z,-6.455
2022-12-11T06:37:22.976Z,-6.44
2022-12-11T06:38:22.999Z,-6.41
2022-12-11T06:39:23.073Z,-6.395
2022-12-11T06:40:23.064Z,-6.395
2022-12-11T06:41:23.100Z,-6.402
2022-12-11T06:42:23.132Z,-6.402
2022-12-11T06:43:23.165Z,-6.417
2022-12-11T06:44:23.214Z,-6.402
2022-12-11T06:45:23.240Z,-6.417
2022-12-11T06:46:23.359Z,-6.432
2022-12-11T06:47:23.302Z,-6.402
2022-12-11T06:48:23.358Z,-6.417
2022-12-11T06:49:23.387Z,-6.432
2022-12-11T06:50:23.391Z,-6.425
2022-12-11T06:51:23.429Z,-6.44
2022-12-11T06:52:23.460Z,-6.44
2022-12-11T06:53:23.475Z,-6.44
2022-12-11T06:54:23.506Z,-6.44
2022-12-11T06:55:23.540Z,-6.425
2022-12-11T06:56:23.569Z,-6.41
2022-12-11T06:57:23.594Z,-6.44
2022-12-11T06:58:23.626Z,-6.44
2022-12-11T06:59:23.663Z,-6.425
2022-12-11T07:00:23.691Z,-6.41
2022-12-11T07:01:23.908Z,-6.41
2022-12-11T07:02:23.779Z,-6.41
2022-12-11T07:03:23.778Z,-6.41
2022-12-11T07:04:23.818Z,-6.395
2022-12-11T07:05:23.848Z,-6.38
2022-12-11T07:06:23.877Z,-6.304
2022-12-11T07:07:23.909Z,-6.319
2022-12-11T07:08:24.032Z,-6.372
2022-12-11T07:09:23.974Z,-6.357
2022-12-11T07:10:23.995Z,-6.327
2022-12-11T07:11:24.034Z,-6.312
2022-12-11T07:12:24.060Z,-6.327
2022-12-11T07:13:24.108Z,-6.319
2022-12-11T07:14:24.127Z,-6.357
2022-12-11T07:15:24.167Z,-6.274
2022-12-11T07:16:24.236Z,-6.274
2022-12-11T07:17:24.227Z,-6.277
2022-12-11T07:18:24.262Z,-6.292
2022-12-11T07:19:24.290Z,-6.357
2022-12-11T07:20:24.318Z,-6.38
2022-12-11T07:21:24.342Z,-6.365
2022-12-11T07:22:24.386Z,-6.375
2022-12-11T07:23:24.406Z,-6.345
2022-12-11T07:24:24.436Z,-6.402
2022-12-11T07:25:24.466Z,-6.372
2022-12-11T07:26:24.476Z,-6.35
2022-12-11T07:27:24.508Z,-6.319
2022-12-11T07:28:24.536Z,-6.304
2022-12-11T07:29:24.557Z,-6.304
2022-12-11T07:30:24.588Z,-6.319
2022-12-11T07:31:24.656Z,-6.319
2022-12-11T07:32:24.836Z,-6.35
2022-12-11T07:33:24.688Z,-6.382
2022-12-11T07:34:24.735Z,-6.395
2022-12-11T07:35:24.756Z,-6.41
2022-12-11T07:36:24.780Z,-6.387
2022-12-11T07:37:24.813Z,-6.387
2022-12-11T07:38:24.840Z,-6.417
2022-12-11T07:39:24.875Z,-6.524
2022-12-11T07:40:24.902Z,-6.555
2022-12-11T07:41:24.934Z,-6.616
2022-12-11T07:42:24.979Z,-6.685
2022-12-11T07:43:25.001Z,-6.731
2022-12-11T07:44:25.028Z,-6.845
2022-12-11T07:45:25.059Z,-6.914
2022-12-11T07:46:25.088Z,-6.93
2022-12-11T07:47:25.127Z,-7.011
2022-12-11T07:48:25.156Z,-7.014
2022-12-11T07:49:25.198Z,-7.03
2022-12-11T07:50:25.235Z,-7.014
2022-12-11T07:51:25.261Z,-7.061
2022-12-11T07:52:25.290Z,-7.099
2022-12-11T07:53:25.315Z,-7.099
2022-12-11T07:54:25.348Z,-7.162
2022-12-11T07:55:25.376Z,-7.146
2022-12-11T07:56:25.410Z,-7.131
2022-12-11T07:57:25.438Z,-7.232
2022-12-11T07:58:25.474Z,-7.248
2022-12-11T07:59:25.510Z,-7.248
2022-12-11T08:00:25.555Z,-7.263
2022-12-11T08:01:25.612Z,-7.286
2022-12-11T08:02:25.685Z,-7.238
2022-12-11T08:03:25.649Z,-7.207
2022-12-11T08:04:25.672Z,-7.254
2022-12-11T08:05:25.695Z,-7.27
2022-12-11T08:06:25.735Z,-7.223
2022-12-11T08:07:25.754Z,-7.27
2022-12-11T08:08:25.905Z,-7.254
2022-12-11T08:09:25.811Z,-7.238
2022-12-11T08:10:25.967Z,-7.286
2022-12-11T08:11:25.891Z,-7.349
2022-12-11T08:12:25.931Z,-7.333
2022-12-11T08:13:25.966Z,-7.318
2022-12-11T08:14:25.989Z,-7.256
2022-12-11T08:15:26.009Z,-7.24
2022-12-11T08:16:26.121Z,-7.275
2022-12-11T08:17:30.064Z,-7.259
2022-12-11T08:18:26.135Z,-7.284
2022-12-11T08:19:26.148Z,-7.3
2022-12-11T08:20:26.170Z,-7.284
2022-12-11T08:21:26.208Z,-7.262
2022-12-11T08:22:26.237Z,-7.277
2022-12-11T08:23:26.260Z,-7.344
2022-12-11T08:24:26.275Z,-7.36
2022-12-11T08:25:26.311Z,-7.374
2022-12-11T08:26:26.339Z,-7.391
2022-12-11T08:27:26.366Z,-7.407
2022-12-11T08:28:27.360Z,-7.375
2022-12-11T08:29:26.426Z,-7.337
2022-12-11T08:30:26.457Z,-7.29
2022-12-11T08:31:26.487Z,-7.29
2022-12-11T08:32:26.528Z,-7.242
2022-12-11T08:33:26.557Z,-7.258
2022-12-11T08:34:26.581Z,-7.187
2022-12-11T08:35:26.616Z,-7.149
2022-12-11T08:36:26.637Z,-7.18
2022-12-11T08:37:26.680Z,-7.245
2022-12-11T08:38:26.709Z,-7.247
2022-12-11T08:39:26.759Z,-7.198
2022-12-11T08:40:26.760Z,-7.182
2022-12-11T08:41:26.808Z,-7.212
2022-12-11T08:42:26.815Z,-7.26
2022-12-11T08:43:26.846Z,-7.31
2022-12-11T08:44:26.938Z,-7.288
2022-12-11T08:45:26.910Z,-7.352
2022-12-11T08:46:27.025Z,-7.368
2022-12-11T08:47:26.970Z,-7.432
2022-12-11T08:48:27.008Z,-7.448
2022-12-11T08:49:32.688Z,-7.416
2022-12-11T08:50:27.062Z,-7.416
2022-12-11T08:51:27.083Z,-7.48
2022-12-11T08:52:27.125Z,-7.561
2022-12-11T08:53:27.158Z,-7.577
2022-12-11T08:54:27.189Z,-7.561
2022-12-11T08:55:27.223Z,-7.545
2022-12-11T08:56:27.244Z,-7.555
2022-12-11T08:57:27.284Z,-7.626
2022-12-11T08:58:27.321Z,-7.659
2022-12-11T08:59:27.340Z,-7.659
2022-12-11T09:00:27.370Z,-7.708
2022-12-11T09:01:27.467Z,-7.724
2022-12-11T09:02:27.487Z,-7.71
2022-12-11T09:03:27.469Z,-7.727
2022-12-11T09:04:27.486Z,-7.727
2022-12-11T09:05:27.510Z,-7.799
2022-12-11T09:06:27.540Z,-7.815
2022-12-11T09:07:27.577Z,-7.782
2022-12-11T09:08:27.678Z,-7.733
2022-12-11T09:09:27.643Z,-7.699
2022-12-11T09:10:27.669Z,-7.704
2022-12-11T09:11:27.701Z,-7.687
2022-12-11T09:12:27.723Z,-7.704
2022-12-11T09:13:27.752Z,-7.72
2022-12-11T09:14:27.790Z,-7.72
2022-12-11T09:15:27.807Z,-7.638
2022-12-11T09:16:27.828Z,-7.638
2022-12-11T09:17:27.856Z,-7.671
2022-12-11T09:18:27.893Z,-7.688
2022-12-11T09:19:32.077Z,-7.671
2022-12-11T09:20:27.952Z,-7.704
2022-12-11T09:21:27.984Z,-7.704
2022-12-11T09:22:28.017Z,-7.72
2022-12-11T09:23:28.034Z,-7.671
2022-12-11T09:24:28.085Z,-7.688
2022-12-11T09:25:28.100Z,-7.688
2022-12-11T09:26:28.123Z,-7.573
2022-12-11T09:27:28.141Z,-7.573
2022-12-11T09:28:28.195Z,-7.534
2022-12-11T09:29:28.203Z,-7.551
2022-12-11T09:30:28.245Z,-7.518
2022-12-11T09:31:28.274Z,-7.428
2022-12-11T09:32:28.312Z,-7.395
2022-12-11T09:33:28.373Z,-7.373
2022-12-11T09:34:29.588Z,-7.405
2022-12-11T09:35:28.392Z,-7.454
2022-12-11T09:36:28.415Z,-7.552
2022-12-11T09:37:28.447Z,-7.552
2022-12-11T09:38:28.496Z,-7.519
2022-12-11T09:39:28.504Z,-7.503
2022-12-11T09:40:28.547Z,-7.47
2022-12-11T09:41:28.563Z,-7.432
2022-12-11T09:42:28.608Z,-7.497
2022-12-11T09:43:28.634Z,-7.53
2022-12-11T09:44:28.672Z,-7.43
2022-12-11T09:45:28.699Z,-7.43
2022-12-11T09:46:32.223Z,-7.44
2022-12-11T09:47:28.766Z,-7.424
2022-12-11T09:48:28.794Z,-7.456
2022-12-11T09:49:28.821Z,-7.44
2022-12-11T09:50:28.860Z,-7.44
2022-12-11T09:51:28.884Z,-7.44
2022-12-11T09:52:28.913Z,-7.407
2022-12-11T09:53:33.939Z,-7.434
2022-12-11T09:54:28.973Z,-7.418
2022-12-11T09:55:29.013Z,-7.467
2022-12-11T09:56:29.053Z,-7.483
2022-12-11T09:57:29.083Z,-7.467
2022-12-11T09:58:29.112Z,-7.495
2022-12-11T09:59:29.142Z,-7.544
2022-12-11T10:00:29.179Z,-7.544
2022-12-11T10:01:29.276Z,-7.528
2022-12-11T10:02:29.274Z,-7.594
2022-12-11T10:03:29.275Z,-7.627
2022-12-11T10:04:29.310Z,-7.633
2022-12-11T10:05:29.339Z,-7.599
2022-12-11T10:06:29.381Z,-7.616
2022-12-11T10:07:29.413Z,-7.633
2022-12-11T10:08:29.487Z,-7.583
2022-12-11T10:09:29.481Z,-7.599
2022-12-11T10:10:29.515Z,-7.599
2022-12-11T10:11:29.546Z,-7.635
2022-12-11T10:12:29.581Z,-7.566
2022-12-11T10:13:29.608Z,-7.583
2022-12-11T10:14:29.681Z,-7.583
2022-12-11T10:15:29.735Z,-7.539
2022-12-11T10:16:29.709Z,-7.533
2022-12-11T10:17:29.737Z,-7.539
2022-12-11T10:18:29.773Z,-7.451
2022-12-11T10:19:29.804Z,-7.5
2022-12-11T10:20:29.839Z,-7.55
2022-12-11T10:21:29.859Z,-7.572
2022-12-11T10:22:29.894Z,-7.572
2022-12-11T10:23:29.978Z,-7.539
2022-12-11T10:25:07.645Z,-7.506
2022-12-11T10:25:30.132Z,-7.556
2022-12-11T10:26:30.020Z,-7.506
2022-12-11T10:27:30.040Z,-7.539
2022-12-11T10:28:30.086Z,-7.523
2022-12-11T10:29:30.107Z,-7.556
2022-12-11T10:30:34.327Z,-7.589
2022-12-11T10:31:30.241Z,-7.66
2022-12-11T10:32:30.196Z,-7.644
2022-12-11T10:33:30.218Z,-7.578
2022-12-11T10:34:30.258Z,-7.512
2022-12-11T10:35:30.282Z,-7.44
2022-12-11T10:36:30.309Z,-7.472
2022-12-11T10:37:30.343Z,-7.489
2022-12-11T10:38:30.378Z,-7.467
2022-12-11T10:39:30.409Z,-7.483
2022-12-11T10:40:30.427Z,-7.482
2022-12-11T10:41:30.471Z,-7.428
2022-12-11T10:42:30.502Z,-7.477
2022-12-11T10:43:30.553Z,-7.428
2022-12-11T10:44:30.597Z,-7.476
2022-12-11T10:45:30.603Z,-7.526
2022-12-11T10:46:30.709Z,-7.526
2022-12-11T10:47:30.668Z,-7.476
2022-12-11T10:48:30.694Z,-7.438
2022-12-11T10:49:30.758Z,-7.471
2022-12-11T10:50:30.757Z,-7.472
2022-12-11T10:51:30.786Z,-7.488
2022-12-11T10:52:30.816Z,-7.487
2022-12-11T10:53:30.845Z,-7.52
2022-12-11T10:54:30.887Z,-7.52
2022-12-11T10:55:30.894Z,-7.504
2022-12-11T10:56:30.927Z,-7.471
2022-12-11T10:57:30.936Z,-7.405
2022-12-11T10:58:30.971Z,-7.356
2022-12-11T10:59:31.002Z,-7.339
2022-12-11T11:00:31.019Z,-7.306
2022-12-11T11:01:31.094Z,-7.268
2022-12-11T11:02:31.180Z,-7.283
2022-12-11T11:03:31.114Z,-7.299
2022-12-11T11:04:31.139Z,-7.414
2022-12-11T11:05:31.177Z,-7.381
2022-12-11T11:06:31.207Z,-7.447
2022-12-11T11:07:31.239Z,-7.431
2022-12-11T11:08:31.293Z,-7.398
2022-12-11T11:09:31.291Z,-7.349
2022-12-11T11:10:31.336Z,-7.259
2022-12-11T11:11:31.356Z,-7.242
2022-12-11T11:12:31.383Z,-7.242
2022-12-11T11:13:31.462Z,-7.225
2022-12-11T11:14:31.456Z,-7.242
2022-12-11T11:15:31.493Z,-7.209
2022-12-11T11:16:31.551Z,-7.225
2022-12-11T11:17:34.611Z,-7.208
2022-12-11T11:18:31.598Z,-7.176
2022-12-11T11:19:31.617Z,-7.176
2022-12-11T11:20:31.642Z,-7.26
2022-12-11T11:21:31.677Z,-7.26
2022-12-11T11:22:31.714Z,-7.192
2022-12-11T11:23:31.736Z,-7.159
2022-12-11T11:24:31.769Z,-7.143
2022-12-11T11:25:31.794Z,-7.145
2022-12-11T11:27:04.317Z,-7.11
2022-12-11T11:27:31.857Z,-7.094
2022-12-11T11:28:31.880Z,-7.088
2022-12-11T11:29:31.913Z,-7.069
2022-12-11T11:30:31.943Z,-7.084
2022-12-11T11:31:32.059Z,-6.984
2022-12-11T11:32:32.010Z,-7.032
2022-12-11T11:33:32.047Z,-6.977
2022-12-11T11:34:32.079Z,-6.994
2022-12-11T11:35:32.119Z,-7.025
2022-12-11T11:36:32.149Z,-6.922
2022-12-11T11:37:32.178Z,-6.884
2022-12-11T11:38:32.197Z,-6.867
2022-12-11T11:39:32.233Z,-6.884
2022-12-11T11:40:32.272Z,-6.917
2022-12-11T11:41:32.308Z,-6.96
2022-12-11T11:42:32.345Z,-6.999
2022-12-11T11:43:32.401Z,-7.032
2022-12-11T11:44:32.405Z,-7.032
2022-12-11T11:45:32.433Z,-7.032
2022-12-11T11:46:32.534Z,-6.999
2022-12-11T11:47:32.498Z,-6.982
2022-12-11T11:48:32.548Z,-6.966
2022-12-11T11:49:32.558Z,-6.999
2022-12-11T11:50:32.584Z,-7.032
2022-12-11T11:51:32.630Z,-7.015
2022-12-11T11:52:32.665Z,-7.032
2022-12-11T11:53:32.691Z,-7.048
2022-12-11T11:54:32.726Z,-7.015
2022-12-11T11:55:32.750Z,-7.048
2022-12-11T11:56:32.785Z,-7.063
2022-12-11T11:57:32.831Z,-7.014
2022-12-11T11:58:32.860Z,-6.981
2022-12-11T11:59:32.896Z,-6.981
2022-12-11T12:00:34.127Z,-6.881
2022-12-11T12:01:32.955Z,-6.858
2022-12-11T12:02:33.092Z,-6.858
2022-12-11T12:03:33.050Z,-6.842
2022-12-11T12:04:33.061Z,-6.82
2022-12-11T12:05:33.099Z,-6.837
2022-12-11T12:06:33.126Z,-6.837
2022-12-11T12:07:33.163Z,-6.837
2022-12-11T12:08:33.203Z,-6.831
2022-12-11T12:09:33.329Z,-6.848
2022-12-11T12:10:33.276Z,-6.914
2022-12-11T12:11:33.299Z,-6.929
2022-12-11T12:12:34.304Z,-6.896
2022-12-11T12:13:49.079Z,-6.951
2022-12-11T12:14:51.724Z,-6.984
2022-12-11T12:15:33.426Z,-6.917
2022-12-11T12:16:52.191Z,-6.934
2022-12-11T12:17:33.531Z,-6.917
2022-12-11T12:18:33.545Z,-6.935
2022-12-11T12:19:33.564Z,-6.887
2022-12-11T12:20:33.589Z,-6.903
2022-12-11T12:21:33.620Z,-6.953
2022-12-11T12:22:33.645Z,-6.903
2022-12-11T12:23:36.690Z,-6.869
2022-12-11T12:24:33.705Z,-6.881
2022-12-11T12:25:33.736Z,-6.812
2022-12-11T12:26:33.763Z,-6.779
2022-12-11T12:27:52.178Z,-6.762
2022-12-11T12:28:33.831Z,-6.773
2022-12-11T12:29:33.860Z,-6.74
2022-12-11T12:30:33.885Z,-6.74
2022-12-11T12:31:33.998Z,-6.756
2022-12-11T12:32:33.948Z,-6.806